Central Nebraska Regional Airport Grand Island US
ICAO: KGRI
IATA: GRI
Category: Medium
Scheduled Services: Yes

Elevation: 1847 ft
TransAlt. 18000 ft.

Airport Communications:
ATIS:127.4
CLNC DEL:121.9
MINNEAPOLIS CNTR:119.4
CTAF:118.2
GND:121.9
ARNG OPS:38
COLUMBUS RDO:122.45
GRAND ISLAND TWR:118.2
UNICOM:122.95

KGRI Zoom In..

Runways:

(A) RW 13 length 6608 ft width 100 ft
---- / hdg 128

(B) RW 17 length 7002 ft width 150 ft
---- / hdg 173

(C) RW 31 length 6608 ft width 100 ft
---- / hdg 308

(D) RW 35 length 7002 ft width 150 ft
ILS 111.90 / hdg 353

Location; KGRI
Day. 21 / Time. 23.53 Zulu
* Altimeter: 30.23
* Temperature: 07° c. 44.6°f.
* Wind from: 010° Speed 05 kn.
Dewpoint: 05° c.
Visibility: 10 Statute Miles.
Clouds: Overcast 3200 ft.

KGRI 212353Z 01005KT 10SM OVC032 07/05 A3023 RMK AO2 SLP250 60002 T00720050 10072 20067 56003


Wind From 010°
Speed 05 kn.

  YouTube Music Video
 
jpsmedia.com for Web Design  worldairports.se 2018   terms of use